KFTK/FTK METAR and TAF weather

Enter ICAO airport designator
Station Type Date Time Source
KFTK METAR 2019/12/06 01:56 UTC NOAA

KFTK 060156Z AUTO 00000KT 10SM CLR 06/M02 A3009 RMK AO2 SLP198 T00551021


Station Type Date Time Source
KFTK Decoded METAR 2019/12/06 01:56 UTC NOAA

Fort Knox, KY, United States (KFTK) 37-54N 085-58W 230M
Dec 05, 2019 - 08:56 PM EST / 2019.12.06 0156 UTC
Wind: Calm:0
Visibility: 10 mile(s):0
Sky conditions: clear
Temperature: 41.9 F (5.5 C)
Dew Point: 28.2 F (-2.1 C)
Relative Humidity: 57%
Pressure (altimeter): 30.09 in. Hg (1018 hPa)
ob: KFTK 060156Z AUTO 00000KT 10SM CLR 06/M02 A3009 RMK AO2 SLP198 T00551021
cycle: 2

Station Type Date Time Source
KFTK TAF 2019/12/06 01:30 UTC NOAA

TAF KFTK 060100Z 0601/0707 18006KT 9999 BKN110 OVC130 QNH3007INS
BECMG 0611/0612 18006KT 9999 BKN025 OVC040 620907 QNH3010INS
TEMPO 0612/0618 -RA
BECMG 0706/0707 04006KT 9999 FEW015 FEW030 QNH3029INS TX10/0620Z TN05/0701Z

Example: see airport list